sensor_id;sensor_type;location;lat;lon;timestamp;temperature;humidity
7234;DHT22;3658;47.992;10.158;2022-07-05T00:01:18;23.40;58.40
7234;DHT22;3658;47.992;10.158;2022-07-05T00:03:45;23.40;58.40
7234;DHT22;3658;47.992;10.158;2022-07-05T00:06:12;23.40;58.40
7234;DHT22;3658;47.992;10.158;2022-07-05T00:08:39;23.40;58.40
7234;DHT22;3658;47.992;10.158;2022-07-05T00:11:06;23.40;58.40
7234;DHT22;3658;47.992;10.158;2022-07-05T00:13:33;23.40;58.40
7234;DHT22;3658;47.992;10.158;2022-07-05T00:16:00;23.40;58.30
7234;DHT22;3658;47.992;10.158;2022-07-05T00:18:29;23.40;58.30
7234;DHT22;3658;47.992;10.158;2022-07-05T00:20:56;23.40;58.30
7234;DHT22;3658;47.992;10.158;2022-07-05T00:23:23;23.40;58.30
7234;DHT22;3658;47.992;10.158;2022-07-05T00:25:50;23.40;58.30
7234;DHT22;3658;47.992;10.158;2022-07-05T00:28:16;23.40;58.30
7234;DHT22;3658;47.992;10.158;2022-07-05T00:30:43;23.40;58.30
7234;DHT22;3658;47.992;10.158;2022-07-05T00:33:10;23.40;58.20
7234;DHT22;3658;47.992;10.158;2022-07-05T00:35:39;23.40;58.30
7234;DHT22;3658;47.992;10.158;2022-07-05T00:38:06;23.40;58.20
7234;DHT22;3658;47.992;10.158;2022-07-05T00:40:33;23.40;58.20
7234;DHT22;3658;47.992;10.158;2022-07-05T00:43:00;23.40;58.20
7234;DHT22;3658;47.992;10.158;2022-07-05T00:45:27;23.40;58.20
7234;DHT22;3658;47.992;10.158;2022-07-05T00:47:54;23.40;58.20
7234;DHT22;3658;47.992;10.158;2022-07-05T00:50:21;23.40;58.10
7234;DHT22;3658;47.992;10.158;2022-07-05T00:52:53;23.40;58.10
7234;DHT22;3658;47.992;10.158;2022-07-05T00:55:21;23.40;58.10
7234;DHT22;3658;47.992;10.158;2022-07-05T00:57:49;23.40;58.10
7234;DHT22;3658;47.992;10.158;2022-07-05T01:00:16;23.40;58.10
7234;DHT22;3658;47.992;10.158;2022-07-05T01:02:43;23.40;58.10
7234;DHT22;3658;47.992;10.158;2022-07-05T01:05:10;23.40;58.10
7234;DHT22;3658;47.992;10.158;2022-07-05T01:07:38;23.40;58.00
7234;DHT22;3658;47.992;10.158;2022-07-05T01:10:08;23.40;58.00
7234;DHT22;3658;47.992;10.158;2022-07-05T01:12:37;23.40;58.00
7234;DHT22;3658;47.992;10.158;2022-07-05T01:15:06;23.40;58.00
7234;DHT22;3658;47.992;10.158;2022-07-05T01:17:33;23.40;58.00
7234;DHT22;3658;47.992;10.158;2022-07-05T01:20:01;23.40;58.00
7234;DHT22;3658;47.992;10.158;2022-07-05T01:22:32;23.40;58.00
7234;DHT22;3658;47.992;10.158;2022-07-05T01:25:06;23.40;58.00
7234;DHT22;3658;47.992;10.158;2022-07-05T01:27:33;23.40;58.00
7234;DHT22;3658;47.992;10.158;2022-07-05T01:30:00;23.40;58.00
7234;DHT22;3658;47.992;10.158;2022-07-05T01:32:28;23.40;58.00
7234;DHT22;3658;47.992;10.158;2022-07-05T01:34:55;23.40;57.90
7234;DHT22;3658;47.992;10.158;2022-07-05T01:37:22;23.40;57.90
7234;DHT22;3658;47.992;10.158;2022-07-05T01:39:51;23.40;57.90
7234;DHT22;3658;47.992;10.158;2022-07-05T01:42:18;23.40;57.90
7234;DHT22;3658;47.992;10.158;2022-07-05T01:44:45;23.40;57.90
7234;DHT22;3658;47.992;10.158;2022-07-05T01:47:12;23.40;57.90
7234;DHT22;3658;47.992;10.158;2022-07-05T01:49:41;23.40;57.90
7234;DHT22;3658;47.992;10.158;2022-07-05T01:52:11;23.40;57.90
7234;DHT22;3658;47.992;10.158;2022-07-05T01:54:39;23.40;57.90
7234;DHT22;3658;47.992;10.158;2022-07-05T01:57:07;23.40;57.90
7234;DHT22;3658;47.992;10.158;2022-07-05T01:59:36;23.40;57.80
7234;DHT22;3658;47.992;10.158;2022-07-05T02:02:04;23.40;57.90
7234;DHT22;3658;47.992;10.158;2022-07-05T02:04:31;23.40;57.90
7234;DHT22;3658;47.992;10.158;2022-07-05T02:07:00;23.40;57.90
7234;DHT22;3658;47.992;10.158;2022-07-05T02:09:29;23.40;57.80
7234;DHT22;3658;47.992;10.158;2022-07-05T02:11:56;23.40;57.80
7234;DHT22;3658;47.992;10.158;2022-07-05T02:14:25;23.40;57.80
7234;DHT22;3658;47.992;10.158;2022-07-05T02:16:52;23.40;57.80
7234;DHT22;3658;47.992;10.158;2022-07-05T02:19:19;23.40;57.80
7234;DHT22;3658;47.992;10.158;2022-07-05T02:21:46;23.40;57.80
7234;DHT22;3658;47.992;10.158;2022-07-05T02:24:13;23.40;57.80
7234;DHT22;3658;47.992;10.158;2022-07-05T02:26:40;23.40;57.80
7234;DHT22;3658;47.992;10.158;2022-07-05T02:29:07;23.40;57.70
7234;DHT22;3658;47.992;10.158;2022-07-05T02:31:35;23.30;57.70
7234;DHT22;3658;47.992;10.158;2022-07-05T02:34:02;23.40;57.70
7234;DHT22;3658;47.992;10.158;2022-07-05T02:36:29;23.40;57.70
7234;DHT22;3658;47.992;10.158;2022-07-05T02:38:56;23.40;57.70
7234;DHT22;3658;47.992;10.158;2022-07-05T02:41:23;23.40;57.80
7234;DHT22;3658;47.992;10.158;2022-07-05T02:43:51;23.40;57.70
7234;DHT22;3658;47.992;10.158;2022-07-05T02:46:18;23.40;57.70
7234;DHT22;3658;47.992;10.158;2022-07-05T02:48:47;23.40;57.70
7234;DHT22;3658;47.992;10.158;2022-07-05T02:51:14;23.40;57.70
7234;DHT22;3658;47.992;10.158;2022-07-05T02:53:42;23.40;57.70
7234;DHT22;3658;47.992;10.158;2022-07-05T02:56:09;23.40;57.70
7234;DHT22;3658;47.992;10.158;2022-07-05T02:58:37;23.40;57.70
7234;DHT22;3658;47.992;10.158;2022-07-05T03:01:04;23.40;57.70
7234;DHT22;3658;47.992;10.158;2022-07-05T03:03:31;23.40;57.70
7234;DHT22;3658;47.992;10.158;2022-07-05T03:05:59;23.40;57.70
7234;DHT22;3658;47.992;10.158;2022-07-05T03:08:26;23.40;57.60
7234;DHT22;3658;47.992;10.158;2022-07-05T03:10:53;23.40;57.70
7234;DHT22;3658;47.992;10.158;2022-07-05T03:13:20;23.30;57.60
7234;DHT22;3658;47.992;10.158;2022-07-05T03:15:47;23.40;57.60
7234;DHT22;3658;47.992;10.158;2022-07-05T03:18:14;23.40;57.70
7234;DHT22;3658;47.992;10.158;2022-07-05T03:20:41;23.30;57.50
7234;DHT22;3658;47.992;10.158;2022-07-05T03:23:10;23.30;57.50
7234;DHT22;3658;47.992;10.158;2022-07-05T03:25:36;23.40;57.60
7234;DHT22;3658;47.992;10.158;2022-07-05T03:28:04;23.40;57.60
7234;DHT22;3658;47.992;10.158;2022-07-05T03:30:31;23.30;57.50
7234;DHT22;3658;47.992;10.158;2022-07-05T03:32:58;23.30;57.50
7234;DHT22;3658;47.992;10.158;2022-07-05T03:35:26;23.30;57.50
7234;DHT22;3658;47.992;10.158;2022-07-05T03:37:53;23.40;57.60
7234;DHT22;3658;47.992;10.158;2022-07-05T03:40:22;23.30;57.50
7234;DHT22;3658;47.992;10.158;2022-07-05T03:42:49;23.30;57.50
7234;DHT22;3658;47.992;10.158;2022-07-05T03:45:16;23.30;57.50
7234;DHT22;3658;47.992;10.158;2022-07-05T03:47:43;23.30;57.50
7234;DHT22;3658;47.992;10.158;2022-07-05T03:50:10;23.40;57.50
7234;DHT22;3658;47.992;10.158;2022-07-05T03:52:37;23.30;57.40
7234;DHT22;3658;47.992;10.158;2022-07-05T03:55:04;23.40;57.50
7234;DHT22;3658;47.992;10.158;2022-07-05T03:57:33;23.30;57.50
7234;DHT22;3658;47.992;10.158;2022-07-05T04:00:00;23.30;57.50
7234;DHT22;3658;47.992;10.158;2022-07-05T04:02:27;23.30;57.40
7234;DHT22;3658;47.992;10.158;2022-07-05T04:04:54;23.40;57.50
7234;DHT22;3658;47.992;10.158;2022-07-05T04:07:20;23.30;57.50
7234;DHT22;3658;47.992;10.158;2022-07-05T04:09:47;23.30;57.40
7234;DHT22;3658;47.992;10.158;2022-07-05T04:12:14;23.30;57.40
7234;DHT22;3658;47.992;10.158;2022-07-05T04:14:43;23.30;57.40
7234;DHT22;3658;47.992;10.158;2022-07-05T04:17:10;23.30;57.40
7234;DHT22;3658;47.992;10.158;2022-07-05T04:19:37;23.30;57.40
7234;DHT22;3658;47.992;10.158;2022-07-05T04:22:04;23.30;57.40
7234;DHT22;3658;47.992;10.158;2022-07-05T04:24:31;23.30;57.40
7234;DHT22;3658;47.992;10.158;2022-07-05T04:27:18;23.40;57.50
7234;DHT22;3658;47.992;10.158;2022-07-05T04:29:47;23.30;57.40
7234;DHT22;3658;47.992;10.158;2022-07-05T04:32:14;23.30;57.40
7234;DHT22;3658;47.992;10.158;2022-07-05T04:34:40;23.30;57.40
7234;DHT22;3658;47.992;10.158;2022-07-05T04:37:07;23.30;57.30
7234;DHT22;3658;47.992;10.158;2022-07-05T04:39:34;23.30;57.30
7234;DHT22;3658;47.992;10.158;2022-07-05T04:42:02;23.30;57.30
7234;DHT22;3658;47.992;10.158;2022-07-05T04:44:29;23.30;57.30
7234;DHT22;3658;47.992;10.158;2022-07-05T04:46:57;23.30;57.30
7234;DHT22;3658;47.992;10.158;2022-07-05T04:49:24;23.30;57.30
7234;DHT22;3658;47.992;10.158;2022-07-05T04:51:51;23.30;57.30
7234;DHT22;3658;47.992;10.158;2022-07-05T04:54:18;23.30;57.50
7234;DHT22;3658;47.992;10.158;2022-07-05T04:56:45;23.30;57.60
7234;DHT22;3658;47.992;10.158;2022-07-05T04:59:12;23.30;57.70
7234;DHT22;3658;47.992;10.158;2022-07-05T05:01:39;23.30;57.80
7234;DHT22;3658;47.992;10.158;2022-07-05T05:04:07;23.30;57.90
7234;DHT22;3658;47.992;10.158;2022-07-05T05:06:34;23.30;57.90
7234;DHT22;3658;47.992;10.158;2022-07-05T05:09:01;23.30;58.00
7234;DHT22;3658;47.992;10.158;2022-07-05T05:11:28;23.30;58.50
7234;DHT22;3658;47.992;10.158;2022-07-05T05:13:55;23.30;58.00
7234;DHT22;3658;47.992;10.158;2022-07-05T05:16:22;23.30;58.00
7234;DHT22;3658;47.992;10.158;2022-07-05T05:18:49;23.30;58.00
7234;DHT22;3658;47.992;10.158;2022-07-05T05:21:18;23.30;58.10
7234;DHT22;3658;47.992;10.158;2022-07-05T05:23:45;23.30;58.10
7234;DHT22;3658;47.992;10.158;2022-07-05T05:26:12;23.30;58.10
7234;DHT22;3658;47.992;10.158;2022-07-05T05:28:39;23.30;58.20
7234;DHT22;3658;47.992;10.158;2022-07-05T05:31:06;23.30;58.20
7234;DHT22;3658;47.992;10.158;2022-07-05T05:33:33;23.30;58.20
7234;DHT22;3658;47.992;10.158;2022-07-05T05:36:00;23.30;58.20
7234;DHT22;3658;47.992;10.158;2022-07-05T05:38:29;23.30;58.20
7234;DHT22;3658;47.992;10.158;2022-07-05T05:40:56;23.30;58.50
7234;DHT22;3658;47.992;10.158;2022-07-05T05:43:23;23.30;58.50
7234;DHT22;3658;47.992;10.158;2022-07-05T05:45:50;23.30;58.60
7234;DHT22;3658;47.992;10.158;2022-07-05T05:48:17;23.30;58.60
7234;DHT22;3658;47.992;10.158;2022-07-05T05:50:46;23.30;58.50
7234;DHT22;3658;47.992;10.158;2022-07-05T05:53:13;23.40;58.70
7234;DHT22;3658;47.992;10.158;2022-07-05T05:55:42;23.30;58.50
7234;DHT22;3658;47.992;10.158;2022-07-05T05:58:13;23.40;58.60
7234;DHT22;3658;47.992;10.158;2022-07-05T06:00:40;23.40;58.60
7234;DHT22;3658;47.992;10.158;2022-07-05T06:03:07;23.40;58.50
7234;DHT22;3658;47.992;10.158;2022-07-05T06:05:34;23.40;58.50
7234;DHT22;3658;47.992;10.158;2022-07-05T06:08:01;23.40;58.50
7234;DHT22;3658;47.992;10.158;2022-07-05T06:10:31;23.40;58.50
7234;DHT22;3658;47.992;10.158;2022-07-05T06:13:02;23.40;58.50
7234;DHT22;3658;47.992;10.158;2022-07-05T06:15:29;23.40;58.50
7234;DHT22;3658;47.992;10.158;2022-07-05T06:17:56;23.40;58.50
7234;DHT22;3658;47.992;10.158;2022-07-05T06:20:25;23.30;58.30
7234;DHT22;3658;47.992;10.158;2022-07-05T06:22:53;23.30;58.30
7234;DHT22;3658;47.992;10.158;2022-07-05T06:25:20;23.40;58.40
7234;DHT22;3658;47.992;10.158;2022-07-05T06:27:50;23.40;58.40
7234;DHT22;3658;47.992;10.158;2022-07-05T06:30:20;23.40;58.30
7234;DHT22;3658;47.992;10.158;2022-07-05T06:32:48;23.40;58.30
7234;DHT22;3658;47.992;10.158;2022-07-05T06:35:15;23.40;58.30
7234;DHT22;3658;47.992;10.158;2022-07-05T06:37:44;23.40;58.30
7234;DHT22;3658;47.992;10.158;2022-07-05T06:40:12;23.40;58.30
7234;DHT22;3658;47.992;10.158;2022-07-05T06:42:40;23.40;58.30
7234;DHT22;3658;47.992;10.158;2022-07-05T06:45:07;23.40;58.30
7234;DHT22;3658;47.992;10.158;2022-07-05T06:47:36;23.40;58.20
7234;DHT22;3658;47.992;10.158;2022-07-05T06:50:04;23.40;58.20
7234;DHT22;3658;47.992;10.158;2022-07-05T06:52:32;23.40;58.20
7234;DHT22;3658;47.992;10.158;2022-07-05T06:54:59;23.40;58.20
7234;DHT22;3658;47.992;10.158;2022-07-05T06:57:26;23.40;58.10
7234;DHT22;3658;47.992;10.158;2022-07-05T06:59:53;23.40;58.80
7234;DHT22;3658;47.992;10.158;2022-07-05T07:02:20;23.40;58.20
7234;DHT22;3658;47.992;10.158;2022-07-05T07:04:49;23.40;58.20
7234;DHT22;3658;47.992;10.158;2022-07-05T07:07:16;23.40;58.20
7234;DHT22;3658;47.992;10.158;2022-07-05T07:10:02;23.40;58.20
7234;DHT22;3658;47.992;10.158;2022-07-05T07:12:30;23.40;58.20
7234;DHT22;3658;47.992;10.158;2022-07-05T07:14:57;23.40;58.20
7234;DHT22;3658;47.992;10.158;2022-07-05T07:17:24;23.40;58.20
7234;DHT22;3658;47.992;10.158;2022-07-05T07:19:52;23.40;58.10
7234;DHT22;3658;47.992;10.158;2022-07-05T07:22:19;23.40;58.10
7234;DHT22;3658;47.992;10.158;2022-07-05T07:24:46;23.40;58.10
7234;DHT22;3658;47.992;10.158;2022-07-05T07:27:13;23.40;58.10
7234;DHT22;3658;47.992;10.158;2022-07-05T07:29:40;23.40;58.10
7234;DHT22;3658;47.992;10.158;2022-07-05T07:32:08;23.40;58.20
7234;DHT22;3658;47.992;10.158;2022-07-05T07:34:35;23.40;58.10
7234;DHT22;3658;47.992;10.158;2022-07-05T07:37:05;23.40;58.80
7234;DHT22;3658;47.992;10.158;2022-07-05T07:39:34;23.40;58.20
7234;DHT22;3658;47.992;10.158;2022-07-05T07:42:01;23.40;58.20
7234;DHT22;3658;47.992;10.158;2022-07-05T07:44:28;23.40;58.20
7234;DHT22;3658;47.992;10.158;2022-07-05T07:46:55;23.40;58.10
7234;DHT22;3658;47.992;10.158;2022-07-05T07:49:22;23.40;58.10
7234;DHT22;3658;47.992;10.158;2022-07-05T07:51:50;23.40;58.10
7234;DHT22;3658;47.992;10.158;2022-07-05T07:54:19;23.40;58.10
7234;DHT22;3658;47.992;10.158;2022-07-05T07:56:46;23.40;58.10
7234;DHT22;3658;47.992;10.158;2022-07-05T07:59:13;23.40;58.10
7234;DHT22;3658;47.992;10.158;2022-07-05T08:01:40;23.40;58.80
7234;DHT22;3658;47.992;10.158;2022-07-05T08:04:07;23.40;58.10
7234;DHT22;3658;47.992;10.158;2022-07-05T08:06:34;23.40;58.20
7234;DHT22;3658;47.992;10.158;2022-07-05T08:09:01;23.40;58.10
7234;DHT22;3658;47.992;10.158;2022-07-05T08:11:29;23.40;58.10
7234;DHT22;3658;47.992;10.158;2022-07-05T08:13:56;23.40;58.10
7234;DHT22;3658;47.992;10.158;2022-07-05T08:16:24;23.40;58.10
7234;DHT22;3658;47.992;10.158;2022-07-05T08:18:50;23.40;58.10
7234;DHT22;3658;47.992;10.158;2022-07-05T08:21:35;23.40;58.10
7234;DHT22;3658;47.992;10.158;2022-07-05T08:24:04;23.40;58.10
7234;DHT22;3658;47.992;10.158;2022-07-05T08:26:34;23.40;58.00
7234;DHT22;3658;47.992;10.158;2022-07-05T08:29:02;23.40;58.00
7234;DHT22;3658;47.992;10.158;2022-07-05T08:31:31;23.40;58.10
7234;DHT22;3658;47.992;10.158;2022-07-05T08:33:59;23.40;58.10
7234;DHT22;3658;47.992;10.158;2022-07-05T08:36:26;23.40;58.10
7234;DHT22;3658;47.992;10.158;2022-07-05T08:38:53;23.40;58.00
7234;DHT22;3658;47.992;10.158;2022-07-05T08:41:22;23.40;58.00
7234;DHT22;3658;47.992;10.158;2022-07-05T08:43:51;23.40;58.00
7234;DHT22;3658;47.992;10.158;2022-07-05T08:46:19;23.40;58.00
7234;DHT22;3658;47.992;10.158;2022-07-05T08:48:48;23.40;58.00
7234;DHT22;3658;47.992;10.158;2022-07-05T08:51:18;23.40;58.10
7234;DHT22;3658;47.992;10.158;2022-07-05T08:53:47;23.40;58.00
7234;DHT22;3658;47.992;10.158;2022-07-05T08:56:16;23.40;58.00
7234;DHT22;3658;47.992;10.158;2022-07-05T08:58:43;23.40;58.00
7234;DHT22;3658;47.992;10.158;2022-07-05T09:01:12;23.40;58.00
7234;DHT22;3658;47.992;10.158;2022-07-05T09:03:42;23.40;58.00
7234;DHT22;3658;47.992;10.158;2022-07-05T09:06:12;23.40;58.00
7234;DHT22;3658;47.992;10.158;2022-07-05T09:08:40;23.40;58.00
7234;DHT22;3658;47.992;10.158;2022-07-05T09:11:08;23.40;58.00
7234;DHT22;3658;47.992;10.158;2022-07-05T09:13:37;23.40;58.00
7234;DHT22;3658;47.992;10.158;2022-07-05T09:16:05;23.40;58.00
7234;DHT22;3658;47.992;10.158;2022-07-05T09:18:44;23.40;58.00
7234;DHT22;3658;47.992;10.158;2022-07-05T09:21:13;23.40;58.00
7234;DHT22;3658;47.992;10.158;2022-07-05T09:23:40;23.40;58.00
7234;DHT22;3658;47.992;10.158;2022-07-05T09:26:08;23.40;58.00
7234;DHT22;3658;47.992;10.158;2022-07-05T09:28:35;23.40;57.90
7234;DHT22;3658;47.992;10.158;2022-07-05T09:31:02;23.40;57.90
7234;DHT22;3658;47.992;10.158;2022-07-05T09:33:29;23.40;58.00
7234;DHT22;3658;47.992;10.158;2022-07-05T09:35:58;23.40;57.90
7234;DHT22;3658;47.992;10.158;2022-07-05T09:38:25;23.40;57.90
7234;DHT22;3658;47.992;10.158;2022-07-05T09:40:54;23.40;57.90
7234;DHT22;3658;47.992;10.158;2022-07-05T09:43:22;23.40;57.90
7234;DHT22;3658;47.992;10.158;2022-07-05T09:45:53;23.40;57.90
7234;DHT22;3658;47.992;10.158;2022-07-05T09:48:21;23.40;57.90
7234;DHT22;3658;47.992;10.158;2022-07-05T09:50:49;23.40;57.90
7234;DHT22;3658;47.992;10.158;2022-07-05T09:53:18;23.40;57.90
7234;DHT22;3658;47.992;10.158;2022-07-05T09:56:00;23.40;58.00
7234;DHT22;3658;47.992;10.158;2022-07-05T09:58:28;23.40;58.00
7234;DHT22;3658;47.992;10.158;2022-07-05T10:00:55;23.40;58.00
7234;DHT22;3658;47.992;10.158;2022-07-05T10:03:22;23.40;58.00
7234;DHT22;3658;47.992;10.158;2022-07-05T10:05:49;23.40;58.00
7234;DHT22;3658;47.992;10.158;2022-07-05T10:08:19;23.40;58.00
7234;DHT22;3658;47.992;10.158;2022-07-05T10:10:47;23.40;58.00
7234;DHT22;3658;47.992;10.158;2022-07-05T10:13:15;23.40;57.90
7234;DHT22;3658;47.992;10.158;2022-07-05T10:15:42;23.40;57.90
7234;DHT22;3658;47.992;10.158;2022-07-05T10:18:12;23.40;57.90
7234;DHT22;3658;47.992;10.158;2022-07-05T10:20:41;23.40;57.80
7234;DHT22;3658;47.992;10.158;2022-07-05T10:23:10;23.40;57.90
7234;DHT22;3658;47.992;10.158;2022-07-05T10:25:40;23.40;57.90
7234;DHT22;3658;47.992;10.158;2022-07-05T10:28:08;23.40;57.90
7234;DHT22;3658;47.992;10.158;2022-07-05T10:30:36;23.40;57.80
7234;DHT22;3658;47.992;10.158;2022-07-05T10:33:05;23.40;57.80
7234;DHT22;3658;47.992;10.158;2022-07-05T10:35:33;23.50;57.90
7234;DHT22;3658;47.992;10.158;2022-07-05T10:38:02;23.40;57.80
7234;DHT22;3658;47.992;10.158;2022-07-05T10:40:32;23.40;57.90
7234;DHT22;3658;47.992;10.158;2022-07-05T10:43:02;23.40;57.90
7234;DHT22;3658;47.992;10.158;2022-07-05T10:45:33;23.40;58.00
7234;DHT22;3658;47.992;10.158;2022-07-05T10:48:16;23.40;57.90
7234;DHT22;3658;47.992;10.158;2022-07-05T10:50:48;23.40;57.90
7234;DHT22;3658;47.992;10.158;2022-07-05T10:53:17;23.40;57.90
7234;DHT22;3658;47.992;10.158;2022-07-05T10:55:52;23.40;57.90
7234;DHT22;3658;47.992;10.158;2022-07-05T10:58:31;23.40;57.90
7234;DHT22;3658;47.992;10.158;2022-07-05T11:01:33;23.40;58.00
7234;DHT22;3658;47.992;10.158;2022-07-05T11:04:28;23.40;58.00
7234;DHT22;3658;47.992;10.158;2022-07-05T11:07:00;23.40;57.90
7234;DHT22;3658;47.992;10.158;2022-07-05T11:09:27;23.40;57.90
7234;DHT22;3658;47.992;10.158;2022-07-05T11:12:06;23.40;57.90
7234;DHT22;3658;47.992;10.158;2022-07-05T11:14:36;23.40;57.90
7234;DHT22;3658;47.992;10.158;2022-07-05T11:17:15;23.40;57.90
7234;DHT22;3658;47.992;10.158;2022-07-05T11:20:25;23.40;58.00
7234;DHT22;3658;47.992;10.158;2022-07-05T11:23:04;23.40;57.90
7234;DHT22;3658;47.992;10.158;2022-07-05T11:25:33;23.40;57.90
7234;DHT22;3658;47.992;10.158;2022-07-05T11:28:05;23.40;57.90
7234;DHT22;3658;47.992;10.158;2022-07-05T11:30:58;23.40;57.80
7234;DHT22;3658;47.992;10.158;2022-07-05T11:33:39;23.50;57.90
7234;DHT22;3658;47.992;10.158;2022-07-05T11:36:20;23.50;57.90
7234;DHT22;3658;47.992;10.158;2022-07-05T11:39:11;23.40;57.90
7234;DHT22;3658;47.992;10.158;2022-07-05T11:41:43;23.40;57.90
7234;DHT22;3658;47.992;10.158;2022-07-05T11:44:10;23.40;57.90
7234;DHT22;3658;47.992;10.158;2022-07-05T11:46:40;23.40;57.90
7234;DHT22;3658;47.992;10.158;2022-07-05T11:49:08;23.40;57.90
7234;DHT22;3658;47.992;10.158;2022-07-05T11:51:35;23.40;57.90
7234;DHT22;3658;47.992;10.158;2022-07-05T11:54:02;23.40;58.50
7234;DHT22;3658;47.992;10.158;2022-07-05T11:56:31;23.40;57.90
7234;DHT22;3658;47.992;10.158;2022-07-05T11:58:58;23.40;57.80
7234;DHT22;3658;47.992;10.158;2022-07-05T12:01:25;23.40;57.90
7234;DHT22;3658;47.992;10.158;2022-07-05T12:03:56;23.40;57.90
7234;DHT22;3658;47.992;10.158;2022-07-05T12:06:23;23.40;57.80
7234;DHT22;3658;47.992;10.158;2022-07-05T12:09:04;23.50;57.90
7234;DHT22;3658;47.992;10.158;2022-07-05T12:11:31;23.40;57.80
7234;DHT22;3658;47.992;10.158;2022-07-05T12:14:21;23.40;57.80
7234;DHT22;3658;47.992;10.158;2022-07-05T12:16:49;23.40;57.90
7234;DHT22;3658;47.992;10.158;2022-07-05T12:19:27;23.40;57.90
7234;DHT22;3658;47.992;10.158;2022-07-05T12:21:54;23.40;57.90
7234;DHT22;3658;47.992;10.158;2022-07-05T12:24:21;23.40;57.90
7234;DHT22;3658;47.992;10.158;2022-07-05T12:26:50;23.40;57.80
7234;DHT22;3658;47.992;10.158;2022-07-05T12:29:18;23.40;57.90
7234;DHT22;3658;47.992;10.158;2022-07-05T12:32:00;23.40;57.80
7234;DHT22;3658;47.992;10.158;2022-07-05T12:34:29;23.40;57.80
7234;DHT22;3658;47.992;10.158;2022-07-05T12:36:56;23.40;57.80
7234;DHT22;3658;47.992;10.158;2022-07-05T12:39:24;23.40;57.80
7234;DHT22;3658;47.992;10.158;2022-07-05T12:41:51;23.40;57.80
7234;DHT22;3658;47.992;10.158;2022-07-05T12:44:19;23.40;57.80
7234;DHT22;3658;47.992;10.158;2022-07-05T12:46:47;23.40;57.80
7234;DHT22;3658;47.992;10.158;2022-07-05T12:49:16;23.40;57.80
7234;DHT22;3658;47.992;10.158;2022-07-05T12:51:45;23.40;57.70
7234;DHT22;3658;47.992;10.158;2022-07-05T12:54:19;23.40;57.80
7234;DHT22;3658;47.992;10.158;2022-07-05T12:57:05;23.40;57.80
7234;DHT22;3658;47.992;10.158;2022-07-05T13:00:00;23.40;57.70
7234;DHT22;3658;47.992;10.158;2022-07-05T13:02:36;23.40;57.80
7234;DHT22;3658;47.992;10.158;2022-07-05T13:05:05;23.40;57.80
7234;DHT22;3658;47.992;10.158;2022-07-05T13:07:40;23.50;57.90
7234;DHT22;3658;47.992;10.158;2022-07-05T13:10:15;23.50;57.90
7234;DHT22;3658;47.992;10.158;2022-07-05T13:12:42;23.50;57.80
7234;DHT22;3658;47.992;10.158;2022-07-05T13:15:09;23.40;57.80
7234;DHT22;3658;47.992;10.158;2022-07-05T13:17:37;23.50;57.80
7234;DHT22;3658;47.992;10.158;2022-07-05T13:20:05;23.40;57.80
7234;DHT22;3658;47.992;10.158;2022-07-05T13:22:33;23.40;57.70
7234;DHT22;3658;47.992;10.158;2022-07-05T13:25:00;23.40;57.70
7234;DHT22;3658;47.992;10.158;2022-07-05T13:27:28;23.50;57.80
7234;DHT22;3658;47.992;10.158;2022-07-05T13:29:55;23.50;57.80
7234;DHT22;3658;47.992;10.158;2022-07-05T13:32:22;23.40;57.70
7234;DHT22;3658;47.992;10.158;2022-07-05T13:34:49;23.50;57.80
7234;DHT22;3658;47.992;10.158;2022-07-05T13:37:17;23.50;57.80
7234;DHT22;3658;47.992;10.158;2022-07-05T13:39:45;23.40;57.70
7234;DHT22;3658;47.992;10.158;2022-07-05T13:42:12;23.50;57.80
7234;DHT22;3658;47.992;10.158;2022-07-05T13:44:39;23.40;57.70
7234;DHT22;3658;47.992;10.158;2022-07-05T13:47:06;23.50;57.80
7234;DHT22;3658;47.992;10.158;2022-07-05T13:49:33;23.50;57.70
7234;DHT22;3658;47.992;10.158;2022-07-05T13:52:00;23.50;57.80
7234;DHT22;3658;47.992;10.158;2022-07-05T13:54:28;23.50;57.80
7234;DHT22;3658;47.992;10.158;2022-07-05T13:56:56;23.50;57.70
7234;DHT22;3658;47.992;10.158;2022-07-05T13:59:23;23.50;57.70
7234;DHT22;3658;47.992;10.158;2022-07-05T14:01:50;23.50;57.80
7234;DHT22;3658;47.992;10.158;2022-07-05T14:04:17;23.40;57.70
7234;DHT22;3658;47.992;10.158;2022-07-05T14:06:44;23.50;57.80
7234;DHT22;3658;47.992;10.158;2022-07-05T14:09:11;23.50;57.80
7234;DHT22;3658;47.992;10.158;2022-07-05T14:11:38;23.50;57.80
7234;DHT22;3658;47.992;10.158;2022-07-05T14:14:07;23.50;57.80
7234;DHT22;3658;47.992;10.158;2022-07-05T14:16:36;23.50;58.40
7234;DHT22;3658;47.992;10.158;2022-07-05T14:19:03;23.40;57.70
7234;DHT22;3658;47.992;10.158;2022-07-05T14:21:30;23.50;57.80
7234;DHT22;3658;47.992;10.158;2022-07-05T14:23:56;23.50;57.80
7234;DHT22;3658;47.992;10.158;2022-07-05T14:26:23;23.40;57.70
7234;DHT22;3658;47.992;10.158;2022-07-05T14:28:53;23.40;57.70
7234;DHT22;3658;47.992;10.158;2022-07-05T14:31:21;23.40;57.70
7234;DHT22;3658;47.992;10.158;2022-07-05T14:33:49;23.40;57.70
7234;DHT22;3658;47.992;10.158;2022-07-05T14:36:16;23.50;57.70
7234;DHT22;3658;47.992;10.158;2022-07-05T14:38:45;23.50;57.80
7234;DHT22;3658;47.992;10.158;2022-07-05T14:41:12;23.40;57.70
7234;DHT22;3658;47.992;10.158;2022-07-05T14:43:39;23.40;57.70
7234;DHT22;3658;47.992;10.158;2022-07-05T14:46:06;23.50;57.80
7234;DHT22;3658;47.992;10.158;2022-07-05T14:48:39;23.50;57.70
7234;DHT22;3658;47.992;10.158;2022-07-05T14:51:06;23.50;57.70
7234;DHT22;3658;47.992;10.158;2022-07-05T14:53:33;23.50;57.80
7234;DHT22;3658;47.992;10.158;2022-07-05T14:55:59;23.40;57.70
7234;DHT22;3658;47.992;10.158;2022-07-05T14:58:26;23.40;57.70
7234;DHT22;3658;47.992;10.158;2022-07-05T15:00:57;23.40;57.70
7234;DHT22;3658;47.992;10.158;2022-07-05T15:03:24;23.40;57.70
7234;DHT22;3658;47.992;10.158;2022-07-05T15:05:52;23.40;57.70
7234;DHT22;3658;47.992;10.158;2022-07-05T15:08:20;23.40;57.70
7234;DHT22;3658;47.992;10.158;2022-07-05T15:10:47;23.40;57.70
7234;DHT22;3658;47.992;10.158;2022-07-05T15:13:14;23.40;57.70
7234;DHT22;3658;47.992;10.158;2022-07-05T15:15:41;23.50;57.70
7234;DHT22;3658;47.992;10.158;2022-07-05T15:18:08;23.50;57.70
7234;DHT22;3658;47.992;10.158;2022-07-05T15:20:35;23.40;57.70
7234;DHT22;3658;47.992;10.158;2022-07-05T15:23:04;23.50;57.70
7234;DHT22;3658;47.992;10.158;2022-07-05T15:25:30;23.40;57.70
7234;DHT22;3658;47.992;10.158;2022-07-05T15:27:57;23.40;57.70
7234;DHT22;3658;47.992;10.158;2022-07-05T15:30:24;23.40;57.70
7234;DHT22;3658;47.992;10.158;2022-07-05T15:32:51;23.40;57.70
7234;DHT22;3658;47.992;10.158;2022-07-05T15:35:18;23.40;57.70
7234;DHT22;3658;47.992;10.158;2022-07-05T15:37:45;23.40;57.70
7234;DHT22;3658;47.992;10.158;2022-07-05T15:40:14;23.40;57.70
7234;DHT22;3658;47.992;10.158;2022-07-05T15:42:41;23.40;57.70
7234;DHT22;3658;47.992;10.158;2022-07-05T15:45:08;23.40;57.70
7234;DHT22;3658;47.992;10.158;2022-07-05T15:47:35;23.40;57.70
7234;DHT22;3658;47.992;10.158;2022-07-05T15:50:06;23.40;57.70
7234;DHT22;3658;47.992;10.158;2022-07-05T15:52:35;23.40;57.70
7234;DHT22;3658;47.992;10.158;2022-07-05T15:55:02;23.40;57.70